createdAt,value
2023-03-26T00:01:16.465Z,2.10
2023-03-26T00:03:47.074Z,2.50
2023-03-26T00:06:16.057Z,2.85
2023-03-26T00:08:45.206Z,2.30
2023-03-26T00:11:14.539Z,2.70
2023-03-26T00:13:44.825Z,2.53
2023-03-26T00:16:14.042Z,2.60
2023-03-26T00:18:42.595Z,2.75
2023-03-26T00:21:12.985Z,1.60
2023-03-26T00:23:41.555Z,2.03
2023-03-26T00:26:10.801Z,2.88
2023-03-26T00:28:40.440Z,2.67
2023-03-26T00:31:10.709Z,2.10
2023-03-26T00:33:38.611Z,1.27
2023-03-26T00:36:10.058Z,2.33
2023-03-26T00:38:38.990Z,2.05
2023-03-26T00:41:08.246Z,2.13
2023-03-26T00:43:36.161Z,1.40
2023-03-26T00:46:03.111Z,2.75
2023-03-26T00:48:44.062Z,2.60
2023-03-26T00:51:15.403Z,2.33
2023-03-26T00:53:43.881Z,2.85
2023-03-26T00:56:10.982Z,2.67
2023-03-26T00:58:38.254Z,2.55
2023-03-26T01:01:08.455Z,1.95
2023-03-26T01:06:09.103Z,1.90
2023-03-26T01:08:40.836Z,2.30
2023-03-26T01:11:14.308Z,2.50
2023-03-26T01:13:46.521Z,2.17
2023-03-26T01:16:37.302Z,2.38
2023-03-26T01:19:13.997Z,2.58
2023-03-26T01:21:40.601Z,2.28
2023-03-26T01:24:09.326Z,2.45
2023-03-26T01:32:50.258Z,1.60
2023-03-26T01:40:47.159Z,3.00
2023-03-26T01:45:51.317Z,1.58
2023-03-26T01:48:18.324Z,1.67
2023-03-26T01:50:45.165Z,1.30
2023-03-26T01:53:13.602Z,1.10
2023-03-26T01:55:56.061Z,2.03
2023-03-26T01:58:31.010Z,1.45
2023-03-26T02:01:13.434Z,1.08
2023-03-26T02:03:47.371Z,1.10
2023-03-26T02:06:23.678Z,2.22
2023-03-26T02:08:56.919Z,1.65
2023-03-26T02:11:33.538Z,1.42
2023-03-26T02:14:04.309Z,1.25
2023-03-26T02:16:30.894Z,1.48
2023-03-26T02:18:59.277Z,1.73
2023-03-26T02:21:27.310Z,1.45
2023-03-26T02:24:02.877Z,1.42
2023-03-26T02:26:32.296Z,1.52
2023-03-26T02:28:59.792Z,1.63
2023-03-26T02:31:26.552Z,1.45
2023-03-26T02:33:55.600Z,1.23
2023-03-26T02:36:27.363Z,1.20
2023-03-26T02:38:55.596Z,1.15
2023-03-26T02:41:22.244Z,1.00
2023-03-26T02:43:49.056Z,0.88
2023-03-26T02:46:15.770Z,1.52
2023-03-26T02:48:42.665Z,1.33
2023-03-26T02:51:09.332Z,1.73
2023-03-26T02:53:37.600Z,1.80
2023-03-26T02:56:04.554Z,1.42
2023-03-26T02:58:31.208Z,1.50
2023-03-26T03:00:57.913Z,1.30
2023-03-26T03:03:26.558Z,1.67
2023-03-26T03:05:55.012Z,1.67
2023-03-26T03:08:24.371Z,1.30
2023-03-26T03:11:11.902Z,1.52
2023-03-26T03:13:38.482Z,1.40
2023-03-26T03:16:05.694Z,1.58
2023-03-26T03:18:32.334Z,1.52
2023-03-26T03:20:58.893Z,1.33
2023-03-26T03:23:25.890Z,1.50
2023-03-26T03:25:53.598Z,1.95
2023-03-26T03:28:20.363Z,1.40
2023-03-26T03:30:47.165Z,1.80
2023-03-26T03:33:13.812Z,1.75
2023-03-26T03:35:41.613Z,2.05
2023-03-26T03:38:08.275Z,1.50
2023-03-26T03:40:34.831Z,1.40
2023-03-26T03:43:01.381Z,1.42
2023-03-26T03:45:27.901Z,1.20
2023-03-26T03:47:54.588Z,1.52
2023-03-26T03:50:21.270Z,1.58
2023-03-26T03:52:47.821Z,1.08
2023-03-26T03:55:15.267Z,1.35
2023-03-26T03:57:42.090Z,1.40
2023-03-26T04:00:09.153Z,1.42
2023-03-26T04:02:35.766Z,1.23
2023-03-26T04:05:04.444Z,1.60
2023-03-26T04:07:32.274Z,1.35
2023-03-26T04:10:00.201Z,1.42
2023-03-26T04:12:28.513Z,1.35
2023-03-26T04:14:55.764Z,1.58
2023-03-26T04:17:23.501Z,1.67
2023-03-26T04:19:52.973Z,2.38
2023-03-26T04:22:19.936Z,1.73
2023-03-26T04:24:48.825Z,1.10
2023-03-26T04:27:19.740Z,2.20
2023-03-26T04:29:49.795Z,1.17
2023-03-26T04:35:00.334Z,1.67
2023-03-26T04:37:35.084Z,1.25
2023-03-26T04:40:10.450Z,1.35
2023-03-26T04:42:41.585Z,1.88
2023-03-26T04:45:09.287Z,2.22
2023-03-26T04:47:37.166Z,1.48
2023-03-26T04:50:05.035Z,1.45
2023-03-26T04:52:31.568Z,1.10
2023-03-26T04:54:58.432Z,1.38
2023-03-26T04:57:34.577Z,1.73
2023-03-26T05:00:02.904Z,1.75
2023-03-26T05:02:29.440Z,2.03
2023-03-26T05:04:57.221Z,1.25
2023-03-26T05:07:24.193Z,1.88
2023-03-26T05:09:51.062Z,1.85
2023-03-26T05:12:17.806Z,1.70
2023-03-26T05:14:44.383Z,1.52
2023-03-26T05:17:15.092Z,1.98
2023-03-26T05:19:41.804Z,1.70
2023-03-26T05:22:08.335Z,2.13
2023-03-26T05:24:34.868Z,1.77
2023-03-26T05:27:01.661Z,2.42
2023-03-26T05:29:28.536Z,2.25
2023-03-26T05:31:55.363Z,2.58
2023-03-26T05:34:26.303Z,2.53
2023-03-26T05:36:53.121Z,3.03
2023-03-26T05:39:22.625Z,2.88
2023-03-26T05:41:50.024Z,3.25
2023-03-26T05:44:16.626Z,3.28
2023-03-26T05:46:43.200Z,3.92
2023-03-26T05:49:09.715Z,3.33
2023-03-26T05:51:36.248Z,4.80
2023-03-26T05:54:02.824Z,5.45
2023-03-26T05:56:29.337Z,5.78
2023-03-26T05:58:56.645Z,5.75
2023-03-26T06:01:25.618Z,6.00
2023-03-26T06:03:52.630Z,6.75
2023-03-26T06:06:20.616Z,6.03
2023-03-26T06:09:01.370Z,6.03
2023-03-26T06:11:31.291Z,6.35
2023-03-26T06:13:58.463Z,4.22
2023-03-26T06:16:27.092Z,4.78
2023-03-26T06:18:56.844Z,5.10
2023-03-26T06:21:25.282Z,4.10
2023-03-26T06:23:52.015Z,4.03
2023-03-26T06:26:18.840Z,3.90
2023-03-26T06:28:45.371Z,3.65
2023-03-26T06:31:12.062Z,3.65
2023-03-26T06:33:38.833Z,3.75
2023-03-26T06:36:06.004Z,3.65
2023-03-26T06:38:32.593Z,3.63
2023-03-26T06:41:04.252Z,3.60
2023-03-26T06:43:33.738Z,3.78
2023-03-26T06:46:01.405Z,4.43
2023-03-26T06:48:28.592Z,3.33
2023-03-26T06:50:55.369Z,3.75
2023-03-26T06:53:22.175Z,3.00
2023-03-26T06:55:48.891Z,3.65
2023-03-26T06:58:16.841Z,2.70
2023-03-26T07:00:43.758Z,2.95
2023-03-26T07:03:11.559Z,2.58
2023-03-26T07:05:41.025Z,2.08
2023-03-26T07:08:07.645Z,2.95
2023-03-26T07:10:34.224Z,3.13
2023-03-26T07:13:00.766Z,3.28
2023-03-26T07:15:28.943Z,2.58
2023-03-26T07:17:56.393Z,3.20
2023-03-26T07:20:23.654Z,3.13
2023-03-26T07:22:50.635Z,3.05
2023-03-26T07:25:18.279Z,3.30
2023-03-26T07:28:25.604Z,3.05
2023-03-26T07:33:47.699Z,3.25
2023-03-26T07:42:04.565Z,3.35
2023-03-26T07:47:27.739Z,0.77
2023-03-26T07:49:55.685Z,1.60
2023-03-26T07:52:22.734Z,1.00
2023-03-26T07:54:49.886Z,0.85
2023-03-26T07:57:49.109Z,1.88
2023-03-26T08:03:25.698Z,0.98
2023-03-26T08:14:08.556Z,1.40
2023-03-26T08:21:55.864Z,0.77
2023-03-26T08:27:27.586Z,1.05
2023-03-26T08:30:25.558Z,1.27
2023-03-26T08:32:57.749Z,0.93
2023-03-26T08:35:26.336Z,0.70
2023-03-26T08:37:53.291Z,1.15
2023-03-26T08:51:56.930Z,2.50
2023-03-26T09:03:23.647Z,1.25
2023-03-26T09:09:35.121Z,0.70
2023-03-26T09:12:41.457Z,0.95
2023-03-26T09:15:33.851Z,1.50
2023-03-26T09:21:27.962Z,2.55
2023-03-26T09:24:34.352Z,2.28
2023-03-26T09:40:59.097Z,1.60
2023-03-26T09:44:05.674Z,1.40
2023-03-26T10:11:22.531Z,1.75
2023-03-26T10:14:18.179Z,1.40
2023-03-26T10:25:14.920Z,1.55
2023-03-26T10:30:56.160Z,1.13
2023-03-26T10:33:34.037Z,1.85
2023-03-26T10:39:37.289Z,2.88
2023-03-26T10:55:40.282Z,2.20
2023-03-26T10:58:26.331Z,2.78
2023-03-26T11:03:54.413Z,1.08
2023-03-26T11:06:50.437Z,1.38
2023-03-26T11:09:43.449Z,1.08
2023-03-26T11:15:17.856Z,1.42
2023-03-26T11:29:31.230Z,0.70
2023-03-26T11:32:06.189Z,0.75
2023-03-26T11:34:38.738Z,1.05
2023-03-26T11:37:13.156Z,0.68
2023-03-26T11:39:47.818Z,0.60
2023-03-26T11:42:17.499Z,1.95
2023-03-26T11:44:56.070Z,0.93
2023-03-26T11:47:31.262Z,0.75
2023-03-26T11:50:00.244Z,0.70
2023-03-26T11:52:27.585Z,1.98
2023-03-26T11:54:54.184Z,1.42
2023-03-26T11:57:33.409Z,0.95
2023-03-26T12:00:16.360Z,1.08
2023-03-26T12:02:44.065Z,0.80
2023-03-26T12:08:00.511Z,0.85
2023-03-26T12:10:38.117Z,1.42
2023-03-26T12:16:08.210Z,2.08
2023-03-26T12:18:35.097Z,2.03
2023-03-26T12:21:05.476Z,1.52
2023-03-26T12:26:17.604Z,2.88
2023-03-26T12:28:46.492Z,0.70
2023-03-26T12:31:18.282Z,1.80
2023-03-26T12:34:04.217Z,0.47
2023-03-26T12:36:33.418Z,0.63
2023-03-26T12:39:16.293Z,2.05
2023-03-26T12:44:44.164Z,0.88
2023-03-26T12:44:59.148Z,0.73
2023-03-26T12:47:57.023Z,0.73
2023-03-26T12:50:34.718Z,0.75
2023-03-26T12:53:19.284Z,0.70
2023-03-26T13:03:55.346Z,1.00
2023-03-26T13:20:12.251Z,0.60
2023-03-26T13:25:36.555Z,1.13
2023-03-26T13:36:23.682Z,0.75
2023-03-26T13:46:55.736Z,1.30
2023-03-26T13:52:04.843Z,1.85
2023-03-26T13:57:19.181Z,0.90
2023-03-26T14:02:33.429Z,1.42
2023-03-26T14:05:07.021Z,1.05
2023-03-26T14:07:43.278Z,1.90
2023-03-26T14:10:16.807Z,1.38
2023-03-26T14:15:47.382Z,1.88
2023-03-26T14:21:36.191Z,0.68
2023-03-26T14:33:30.381Z,1.95
2023-03-26T14:36:25.327Z,1.00
2023-03-26T14:39:32.125Z,0.60
2023-03-26T14:42:07.479Z,1.45
2023-03-26T14:48:17.722Z,0.95
2023-03-26T14:51:12.445Z,1.52
2023-03-26T14:53:43.767Z,1.92
2023-03-26T15:02:08.985Z,0.65
2023-03-26T15:07:53.789Z,2.40
2023-03-26T15:13:22.347Z,0.40
2023-03-26T15:27:01.632Z,0.68
2023-03-26T15:43:21.062Z,1.95
2023-03-26T15:49:05.194Z,0.68
2023-03-26T15:52:06.537Z,0.88
2023-03-26T15:54:57.328Z,0.68
2023-03-26T16:00:22.811Z,0.65
2023-03-26T16:06:28.165Z,0.77
2023-03-26T16:09:12.726Z,0.80
2023-03-26T16:15:11.629Z,2.05
2023-03-26T16:20:54.700Z,1.58
2023-03-26T16:26:57.957Z,1.10
2023-03-26T16:29:27.970Z,0.68
2023-03-26T16:37:51.722Z,1.73
2023-03-26T16:48:41.514Z,0.40
2023-03-26T16:51:22.833Z,0.90
2023-03-26T16:54:29.251Z,0.52
2023-03-26T17:08:12.205Z,2.08
2023-03-26T17:10:57.103Z,1.65
2023-03-26T17:13:38.241Z,0.50
2023-03-26T17:16:28.727Z,0.50
2023-03-26T17:19:29.819Z,0.60
2023-03-26T17:22:05.873Z,0.35
2023-03-26T17:24:45.881Z,1.90
2023-03-26T17:33:31.695Z,2.13
2023-03-26T17:41:50.029Z,0.63
2023-03-26T17:47:20.413Z,0.60
2023-03-26T17:49:51.055Z,1.58
2023-03-26T17:52:25.346Z,0.60
2023-03-26T17:54:55.870Z,1.00
2023-03-26T18:00:00.944Z,0.80
2023-03-26T18:02:39.511Z,1.92
2023-03-26T18:05:12.527Z,0.77
2023-03-26T18:08:00.148Z,0.85
2023-03-26T18:14:01.960Z,1.50
2023-03-26T18:16:47.858Z,1.50
2023-03-26T18:19:21.932Z,1.33
2023-03-26T18:21:52.039Z,2.20
2023-03-26T18:29:45.979Z,2.15
2023-03-26T18:34:53.649Z,0.80
2023-03-26T18:37:23.671Z,0.55
2023-03-26T18:42:34.237Z,2.45
2023-03-26T18:45:05.965Z,0.60
2023-03-26T18:47:32.758Z,2.50
2023-03-26T18:50:00.209Z,2.28
2023-03-26T18:52:29.345Z,1.75
2023-03-26T18:54:59.170Z,2.35
2023-03-26T18:57:29.058Z,1.77
2023-03-26T19:00:09.968Z,1.83
2023-03-26T19:02:38.519Z,1.75
2023-03-26T19:05:06.176Z,0.50
2023-03-26T19:07:35.357Z,1.42
2023-03-26T19:10:02.462Z,1.67
2023-03-26T19:12:33.143Z,2.70
2023-03-26T19:15:12.756Z,1.95
2023-03-26T19:17:44.656Z,2.13
2023-03-26T19:20:18.202Z,0.80
2023-03-26T19:22:46.570Z,1.75
2023-03-26T19:25:29.834Z,1.50
2023-03-26T19:27:56.962Z,0.80
2023-03-26T19:30:30.980Z,1.23
2023-03-26T19:33:12.649Z,1.83
2023-03-26T19:35:42.149Z,2.55
2023-03-26T19:38:27.613Z,2.40
2023-03-26T19:40:57.094Z,1.98
2023-03-26T19:43:25.740Z,2.35
2023-03-26T19:46:00.399Z,2.80
2023-03-26T19:48:46.197Z,3.03
2023-03-26T19:51:20.425Z,2.47
2023-03-26T19:53:51.544Z,2.80
2023-03-26T19:56:21.338Z,2.60
2023-03-26T19:58:49.600Z,0.65
2023-03-26T20:01:19.227Z,1.83
2023-03-26T20:03:48.518Z,1.02
2023-03-26T20:06:17.646Z,2.22
2023-03-26T20:08:44.872Z,2.13
2023-03-26T20:11:16.648Z,2.45
2023-03-26T20:13:43.237Z,2.17
2023-03-26T20:19:02.784Z,0.88
2023-03-26T20:21:30.131Z,0.60
2023-03-26T20:23:56.726Z,0.60
2023-03-26T20:26:24.673Z,0.82
2023-03-26T20:28:53.555Z,0.52
2023-03-26T20:31:24.749Z,0.70
2023-03-26T20:33:52.899Z,0.68
2023-03-26T20:36:33.256Z,0.80
2023-03-26T20:39:05.606Z,1.02
2023-03-26T20:41:32.752Z,1.17
2023-03-26T20:43:59.271Z,1.10
2023-03-26T20:46:31.242Z,0.98
2023-03-26T20:48:58.940Z,0.90
2023-03-26T20:51:28.493Z,1.15
2023-03-26T20:53:56.443Z,0.85
2023-03-26T20:56:23.462Z,1.15
2023-03-26T20:58:54.805Z,0.73
2023-03-26T21:01:27.866Z,0.88
2023-03-26T21:03:54.516Z,1.00
2023-03-26T21:06:21.207Z,1.23
2023-03-26T21:08:48.518Z,0.65
2023-03-26T21:11:45.062Z,1.08
2023-03-26T21:16:48.718Z,1.77
2023-03-26T21:19:15.908Z,1.98
2023-03-26T21:27:26.583Z,0.85
2023-03-26T21:29:55.031Z,1.27
2023-03-26T21:32:22.721Z,0.57
2023-03-26T21:34:58.511Z,0.75
2023-03-26T21:37:26.895Z,0.80
2023-03-26T21:39:53.771Z,0.70
2023-03-26T21:42:20.631Z,1.40
2023-03-26T21:44:47.748Z,0.63
2023-03-26T21:47:14.933Z,0.52
2023-03-26T21:49:41.770Z,0.73
2023-03-26T21:52:14.649Z,0.82
2023-03-26T21:54:43.085Z,0.75
2023-03-26T22:05:24.281Z,1.90
2023-03-26T22:10:28.191Z,0.50
2023-03-26T22:12:54.863Z,0.70
2023-03-26T22:15:21.850Z,0.93
2023-03-26T22:17:54.139Z,0.65
2023-03-26T22:20:24.385Z,1.45
2023-03-26T22:22:53.390Z,0.43
2023-03-26T22:25:22.031Z,0.90
2023-03-26T22:27:50.666Z,0.63
2023-03-26T22:30:18.907Z,0.65
2023-03-26T22:32:45.761Z,0.98
2023-03-26T22:35:13.066Z,1.00
2023-03-26T22:37:40.545Z,1.08
2023-03-26T22:40:08.924Z,0.88
2023-03-26T22:42:36.670Z,0.60
2023-03-26T22:45:04.596Z,0.60
2023-03-26T22:47:33.619Z,0.75
2023-03-26T22:50:00.726Z,0.65
2023-03-26T22:52:28.004Z,1.17
2023-03-26T22:54:54.664Z,0.47
2023-03-26T22:57:22.159Z,0.50
2023-03-26T22:59:48.832Z,0.70
2023-03-26T23:02:16.675Z,0.60
2023-03-26T23:04:44.081Z,0.82
2023-03-26T23:07:11.226Z,0.75
2023-03-26T23:09:37.869Z,1.27
2023-03-26T23:12:04.792Z,0.98
2023-03-26T23:14:32.481Z,1.00
2023-03-26T23:16:59.734Z,0.65
2023-03-26T23:19:26.463Z,0.70
2023-03-26T23:21:53.001Z,0.70
2023-03-26T23:24:20.668Z,0.60
2023-03-26T23:26:50.939Z,0.68
2023-03-26T23:29:18.379Z,0.60
2023-03-26T23:31:45.000Z,0.82
2023-03-26T23:34:13.467Z,0.70
2023-03-26T23:36:40.911Z,0.93
2023-03-26T23:39:09.103Z,1.13
2023-03-26T23:41:36.765Z,1.00
2023-03-26T23:44:04.486Z,2.05
2023-03-26T23:46:34.695Z,1.20
2023-03-26T23:51:30.486Z,0.70
2023-03-26T23:53:57.860Z,0.80
2023-03-26T23:56:24.466Z,0.55
2023-03-26T23:58:51.252Z,0.95
